Time;durP1;ratioP1;P1;durP2;ratioP2;P2;SDS_P1;SDS_P2;PMS_P1;PMS_P2;Temp;Humidity;BMP_temperature;BMP_pressure;BME280_temperature;BME280_humidity;BME280_pressure;Samples;Min_cycle;Max_cycle;Signal;HPM_P1;HPM_P2
2021/08/24 00:00:46;;;;;;;6.80;5.05;;;20.30;99.90;;;20.59;67.85;102696.31;5113581;28;20089;-70
2021/08/24 00:03:15;;;;;;;7.53;5.55;;;20.30;99.90;;;20.61;67.81;102700.75;5095309;28;20093;-71
2021/08/24 00:05:46;;;;;;;10.38;6.03;;;20.20;99.90;;;20.45;67.77;102680.41;5113590;28;20044;-71
2021/08/24 00:08:15;;;;;;;;;;;20.20;99.90;;;20.60;67.60;102690.91;5113624;28;20535;-71
2021/08/24 00:10:47;;;;;;;6.07;4.97;;;20.30;99.90;;;20.62;67.35;102696.25;5095226;28;20349;-71
2021/08/24 00:13:19;;;;;;;7.45;5.43;;;20.30;99.90;;;20.62;67.30;102698.94;5113188;28;20440;-70
2021/08/24 00:15:50;;;;;;;7.80;5.95;;;20.20;99.90;;;20.62;66.90;102694.47;5113170;28;20088;-71
2021/08/24 00:18:19;;;;;;;6.78;5.22;;;20.20;99.90;;;20.62;66.79;102697.16;5097574;28;20044;-70
2021/08/24 00:20:52;;;;;;;8.90;5.30;;;20.30;99.90;;;20.62;66.55;102686.41;5117150;28;20113;-70
2021/08/24 00:23:25;;;;;;;7.32;5.25;;;20.20;99.90;;;20.63;66.49;102692.69;5117172;28;20093;-70
2021/08/24 00:25:55;;;;;;;6.78;4.72;;;20.30;99.90;;;20.59;66.22;102688.25;5117234;28;20437;-70
2021/08/24 00:28:27;;;;;;;8.88;5.10;;;20.20;99.90;;;20.46;66.00;102671.41;5099100;28;20565;-70
2021/08/24 00:30:56;;;;;;;6.30;4.88;;;20.20;99.90;;;20.59;65.91;102689.16;5117149;28;20105;-70
2021/08/24 00:33:26;;;;;;;8.20;5.18;;;20.30;99.90;;;20.58;65.36;102690.06;5117261;28;20499;-71
2021/08/24 00:35:55;;;;;;;6.10;4.82;;;20.20;99.90;;;20.51;65.57;102682.13;5117216;28;20051;-70
2021/08/24 00:38:26;;;;;;;5.80;5.20;;;20.20;99.90;;;20.62;65.17;102697.16;5116765;28;20058;-71
2021/08/24 00:40:57;;;;;;;5.32;4.65;;;20.20;99.90;;;20.62;65.09;102690.88;5117095;28;20052;-70
2021/08/24 00:43:30;;;;;;;5.72;4.47;;;20.20;99.90;;;20.66;64.76;102695.31;5117191;28;20055;-70
2021/08/24 00:46:13;;;;;;;7.60;5.15;;;20.30;99.90;;;20.61;64.49;102698.06;5116817;28;20044;-70
2021/08/24 00:48:43;;;;;;;5.63;4.47;;;20.30;99.90;;;20.62;64.81;102701.63;5116779;28;20048;-71
2021/08/24 00:51:15;;;;;;;5.25;4.50;;;20.20;99.90;;;18.82;64.50;102410.72;5116754;28;20043;-71
2021/08/24 00:53:44;;;;;;;9.50;5.28;;;20.20;99.90;;;20.69;64.34;102697.97;5117176;28;20077;-70
2021/08/24 00:56:13;;;;;;;7.75;4.90;;;20.20;99.90;;;20.63;64.62;102701.59;5116829;28;20490;-71
2021/08/24 00:58:43;;;;;;;7.32;4.60;;;20.20;99.90;;;20.04;64.22;102599.50;5117075;28;20083;-70
2021/08/24 01:01:15;;;;;;;4.93;4.43;;;20.20;99.90;;;20.58;64.21;102699.91;5116723;28;20065;-71
2021/08/24 01:03:48;;;;;;;6.55;4.85;;;20.20;99.90;;;20.33;64.37;102677.91;5116509;28;20044;-70
2021/08/24 01:06:37;;;;;;;8.05;5.15;;;20.10;99.90;;;20.48;64.32;102704.56;5116593;28;20043;-70
2021/08/24 01:09:26;;;;;;;7.82;4.75;;;20.10;99.90;;;20.45;64.34;102693.88;5116654;28;20043;-70
2021/08/24 01:12:07;;;;;;;8.02;4.72;;;20.00;99.90;;;20.46;64.35;102713.59;5116334;28;20074;-70
2021/08/24 01:14:50;;;;;;;;;;;20.10;99.90;;;20.49;64.05;102700.97;5116727;28;20036;-71
2021/08/24 01:17:23;;;;;;;6.05;4.65;;;20.10;99.90;;;20.33;64.04;102694.03;5116213;28;19947;-70
2021/08/24 01:20:28;;;;;;;6.55;4.85;;;20.10;99.90;;;20.37;64.55;102705.63;5116392;28;20040;-70
2021/08/24 01:23:48;;;;;;;8.10;5.10;;;20.00;99.90;;;20.19;64.71;102692.50;5098099;28;20096;-70
2021/08/24 01:26:28;;;;;;;7.07;5.15;;;19.90;99.90;;;20.32;64.79;102729.03;5116366;28;20044;-70
2021/08/24 01:29:31;;;;;;;7.70;5.40;;;19.90;99.90;;;20.31;64.69;102712.00;5115306;28;20452;-70
2021/08/24 01:32:17;;;;;;;4.65;4.25;;;19.90;99.90;;;20.19;64.81;102722.06;5096983;28;20050;-70
2021/08/24 01:35:07;;;;;;;6.00;5.00;;;19.80;99.90;;;20.21;64.67;102707.66;5116458;28;20051;-70
2021/08/24 01:37:45;;;;;;;7.03;4.63;;;19.80;99.90;;;20.12;65.00;102707.78;5116225;28;20476;-70
2021/08/24 01:40:19;;;;;;;8.10;5.00;;;19.80;99.90;;;20.19;64.58;102708.63;5115476;28;20096;-70
2021/08/24 01:42:49;;;;;;;6.97;4.70;;;19.80;99.90;;;20.21;64.78;102713.03;5115985;28;20059;-71
2021/08/24 01:45:24;;;;;;;7.07;5.22;;;19.80;99.90;;;20.09;64.67;102699.75;5115951;28;20054;-70
2021/08/24 01:47:58;;;;;;;7.93;4.93;;;19.80;99.90;;;20.21;64.55;102725.63;5115667;28;20097;-70
2021/08/24 01:50:34;;;;;;;7.72;5.45;;;19.80;99.90;;;20.22;64.75;102722.91;5097583;28;20044;-71
2021/08/24 01:53:10;;;;;;;8.75;5.40;;;19.80;99.90;;;20.17;64.85;102726.53;5115508;28;20071;-71
2021/08/24 01:55:42;;;;;;;8.35;5.40;;;19.80;99.90;;;20.15;64.74;102721.16;5115508;28;20044;-70
2021/08/24 01:58:16;;;;;;;8.45;5.28;;;19.80;99.90;;;20.13;64.91;102725.66;5115437;28;20077;-70
2021/08/24 02:00:50;;;;;;;7.47;4.82;;;19.70;99.90;;;20.13;65.09;102717.59;5097329;28;20048;-70
2021/08/24 02:03:25;;;;;;;8.68;4.82;;;19.70;99.90;;;20.12;65.18;102721.22;5115305;28;20043;-71
2021/08/24 02:06:00;;;;;;;6.65;5.32;;;19.70;99.90;;;19.98;65.24;102715.13;5115851;28;20043;-71
2021/08/24 02:08:35;;;;;;;6.68;5.47;;;19.70;99.90;;;20.03;65.61;102721.34;5097096;28;20052;-71
2021/08/24 02:11:06;;;;;;;7.60;4.70;;;19.60;99.90;;;20.08;65.73;102732.00;5115751;28;20039;-70
2021/08/24 02:13:42;;;;;;;8.32;5.47;;;19.70;99.90;;;20.02;65.86;102722.25;5115430;28;20043;-70
2021/08/24 02:16:25;;;;;;;7.72;5.55;;;19.70;99.90;;;19.99;66.04;102724.09;5096973;28;20048;-70
2021/08/24 02:19:00;;;;;;;6.10;5.30;;;19.70;99.90;;;19.92;66.30;102723.28;5115219;28;20052;-70
2021/08/24 02:21:32;;;;;;;10.98;5.50;;;19.60;99.90;;;19.87;66.58;102727.81;5114893;28;20051;-70
2021/08/24 02:24:06;;;;;;;8.25;5.90;;;19.60;99.90;;;19.90;66.71;102729.59;5115209;28;20440;-71
2021/08/24 02:26:37;;;;;;;6.50;5.88;;;19.60;99.90;;;19.86;67.09;102734.09;5115105;28;20440;-70
2021/08/24 02:29:06;;;;;;;9.32;6.07;;;19.50;99.90;;;19.83;67.45;102738.63;5096857;28;20546;-71
2021/08/24 02:31:42;;;;;;;8.32;6.32;;;19.50;99.90;;;19.80;67.66;102743.13;5114676;28;20096;-70
2021/08/24 02:34:21;;;;;;;8.55;6.47;;;19.50;99.90;;;19.79;67.92;102744.03;5114690;28;20035;-71
2021/08/24 02:36:58;;;;;;;13.15;6.63;;;19.40;99.90;;;19.79;68.02;102737.78;5114721;28;20051;-71
2021/08/24 02:39:37;;;;;;;7.70;5.85;;;19.40;99.90;;;19.76;68.11;102733.31;5114604;28;20070;-71
2021/08/24 02:42:13;;;;;;;7.75;5.85;;;19.40;99.90;;;19.76;68.38;102745.88;5095918;28;20047;-70
2021/08/24 02:44:49;;;;;;;8.75;6.82;;;19.40;99.90;;;19.69;68.81;102747.75;5114511;28;20112;-70
2021/08/24 02:47:19;;;;;;;11.38;7.10;;;19.30;99.90;;;19.70;68.92;102744.13;5114748;28;20042;-70
2021/08/24 02:49:47;;;;;;;10.50;6.63;;;19.30;99.90;;;19.74;69.32;102750.38;5114585;28;20047;-71
2021/08/24 02:52:16;;;;;;;14.93;7.65;;;19.30;99.90;;;19.74;69.57;102747.69;5114273;28;20043;-71
2021/08/24 02:54:49;;;;;;;9.98;7.38;;;19.40;99.90;;;19.66;69.75;102747.78;5114597;28;20455;-71
2021/08/24 02:57:18;;;;;;;11.98;7.30;;;19.30;99.90;;;19.58;70.03;102738.03;5114858;28;20452;-71
2021/08/24 02:59:46;;;;;;;11.20;7.32;;;19.30;99.90;;;19.67;70.24;102752.25;5114422;28;20036;-71
2021/08/24 03:02:15;;;;;;;9.80;7.70;;;19.30;99.90;;;19.66;70.31;102750.47;5114439;28;20093;-71
2021/08/24 03:04:44;;;;;;;11.43;8.27;;;19.30;99.90;;;19.62;70.58;102751.44;5114421;28;20036;-71
2021/08/24 03:07:17;;;;;;;10.60;8.13;;;19.20;99.90;;;19.62;70.60;102746.06;5096144;28;20044;-71
2021/08/24 03:09:48;;;;;;;10.27;7.70;;;19.20;99.90;;;19.61;70.85;102746.03;5114298;28;20103;-71
2021/08/24 03:12:28;;;;;;;11.77;8.48;;;19.20;99.90;;;19.60;70.99;102746.97;5113931;28;20048;-70
2021/08/24 03:15:03;;;;;;;17.03;9.80;;;19.20;99.90;;;19.54;71.06;102738.97;5114058;28;20140;-70
2021/08/24 03:17:37;;;;;;;10.13;8.70;;;19.20;99.90;;;19.56;71.17;102745.22;5113918;28;20277;-71
2021/08/24 03:20:09;;;;;;;10.55;8.90;;;19.20;99.90;;;19.47;71.56;102740.84;5096021;28;20410;-71
2021/08/24 03:22:40;;;;;;;14.52;9.57;;;19.10;99.90;;;19.51;71.81;102744.41;5113768;28;20047;-71
2021/08/24 03:25:12;;;;;;;;;;;19.10;99.90;;;19.51;71.84;102747.94;5096303;28;20444;-70
2021/08/24 03:27:45;;;;;;;15.63;8.77;;;19.20;99.90;;;19.48;72.16;102748.00;5114068;28;20369;-71
2021/08/24 03:30:17;;;;;;;12.48;8.88;;;19.10;99.90;;;19.49;72.21;102741.72;5114002;28;20097;-71
2021/08/24 03:32:46;;;;;;;12.68;9.90;;;19.10;99.90;;;19.47;72.34;102748.03;5113681;28;20047;-70
2021/08/24 03:35:17;;;;;;;13.15;10.63;;;19.10;99.90;;;19.42;72.62;102741.78;5113613;28;20042;-71
2021/08/24 03:37:46;;;;;;;14.88;10.68;;;19.00;99.90;;;19.46;72.92;102755.19;5114141;28;20051;-71
2021/08/24 03:40:17;;;;;;;12.05;9.60;;;19.00;99.90;;;19.42;73.08;102748.06;5113597;28;20118;-70
2021/08/24 03:42:46;;;;;;;12.65;10.10;;;19.00;99.90;;;18.72;73.41;102629.81;5113886;28;20059;-71
2021/08/24 03:45:14;;;;;;;13.88;10.15;;;19.00;99.90;;;19.33;73.39;102732.06;5113514;28;20063;-71
2021/08/24 03:47:42;;;;;;;12.73;9.95;;;19.00;99.90;;;19.33;73.83;102747.28;5113972;28;20036;-71
2021/08/24 03:50:11;;;;;;;13.93;11.30;;;18.90;99.90;;;19.39;73.88;102747.22;5113673;28;20130;-71
2021/08/24 03:52:39;;;;;;;14.82;10.75;;;19.00;99.90;;;19.36;73.92;102741.84;5113185;28;20074;-70
2021/08/24 03:55:08;;;;;;;17.00;10.63;;;19.00;99.90;;;19.35;73.91;102743.66;5113406;28;20035;-70
2021/08/24 03:57:38;;;;;;;13.23;10.95;;;19.00;99.90;;;19.36;73.97;102747.22;5113336;28;20519;-70
2021/08/24 04:00:08;;;;;;;15.23;10.57;;;18.90;99.90;;;18.82;73.94;102646.69;5113701;28;20043;-71
2021/08/24 04:02:40;;;;;;;13.68;10.80;;;19.00;99.90;;;19.37;74.46;102752.59;5113654;28;20039;-70
2021/08/24 04:05:11;;;;;;;13.05;11.05;;;19.00;99.90;;;19.36;74.45;102747.22;5113260;28;20039;-70
2021/08/24 04:07:40;;;;;;;14.73;10.88;;;18.90;99.90;;;19.36;74.49;102750.81;5113338;28;20042;-70
2021/08/24 04:10:10;;;;;;;16.27;11.18;;;19.00;99.90;;;19.39;74.65;102761.53;5113190;28;20032;-70
2021/08/24 04:12:40;;;;;;;15.43;11.13;;;19.00;99.90;;;19.36;74.67;102749.91;5113784;28;20044;-70
2021/08/24 04:15:09;;;;;;;14.98;11.27;;;19.00;99.90;;;19.39;74.73;102757.94;5113214;28;20054;-71
2021/08/24 04:17:39;;;;;;;15.82;12.25;;;19.00;99.90;;;19.30;74.70;102740.09;5113412;28;20039;-70
2021/08/24 04:20:16;;;;;;;15.20;11.77;;;19.00;99.90;;;19.38;75.02;102761.53;5113402;28;20451;-71
2021/08/24 04:22:49;;;;;;;16.95;12.55;;;19.00;99.90;;;19.34;75.42;102762.44;5113130;28;20036;-70
2021/08/24 04:25:19;;;;;;;15.73;12.18;;;19.00;99.90;;;19.34;75.55;102771.41;5113162;28;20093;-69
2021/08/24 04:27:49;;;;;;;16.48;11.98;;;19.00;99.90;;;19.31;75.59;102765.16;5113661;28;20043;-70
2021/08/24 04:30:18;;;;;;;16.13;12.60;;;19.00;99.90;;;19.27;75.94;102764.28;5113432;28;20075;-70
2021/08/24 04:32:48;;;;;;;17.42;13.40;;;18.90;99.90;;;19.27;76.21;102766.06;5113018;28;20139;-70
2021/08/24 04:35:19;;;;;;;15.95;12.45;;;18.90;99.90;;;19.19;76.52;102768.84;5112954;28;20044;-70
2021/08/24 04:37:48;;;;;;;18.25;13.10;;;18.80;99.90;;;19.13;76.83;102770.69;5094686;28;20096;-70
2021/08/24 04:40:16;;;;;;;18.88;13.10;;;18.80;99.90;;;19.18;76.93;102772.41;5112689;28;20042;-69
2021/08/24 04:42:45;;;;;;;19.27;13.13;;;18.80;99.90;;;19.11;76.51;102769.81;5113108;28;20071;-70
2021/08/24 04:45:15;;;;;;;19.85;13.40;;;18.80;99.90;;;19.20;76.66;102781.34;5113187;28;20051;-70
2021/08/24 04:47:44;;;;;;;17.27;12.85;;;18.80;99.90;;;19.20;76.70;102777.78;5112970;28;20044;-70
2021/08/24 04:50:12;;;;;;;19.08;12.70;;;18.80;99.90;;;19.17;76.98;102781.38;5112844;28;20074;-70
2021/08/24 04:52:41;;;;;;;14.20;12.63;;;18.80;99.90;;;19.17;77.12;102785.84;5113013;28;20093;-70
2021/08/24 04:55:11;;;;;;;18.17;12.50;;;18.80;99.90;;;19.02;77.00;102749.34;5113049;28;20474;-70
2021/08/24 04:57:40;;;;;;;;;;;18.80;99.90;;;18.71;77.13;102721.91;5113601;28;20067;-70
2021/08/24 05:00:10;;;;;;;16.00;12.30;;;18.90;99.90;;;19.08;77.12;102777.91;5113260;28;19927;-70
2021/08/24 05:02:40;;;;;;;19.08;12.50;;;18.80;99.90;;;19.14;77.13;102784.09;5112745;28;20499;-70
2021/08/24 05:05:10;;;;;;;18.43;12.90;;;18.80;99.90;;;19.19;77.20;102790.31;5114228;28;20378;-70
2021/08/24 05:07:38;;;;;;;19.35;13.23;;;18.80;99.90;;;19.20;77.22;102789.38;5117083;28;20283;-70
2021/08/24 05:10:08;;;;;;;15.68;12.38;;;18.90;99.90;;;19.23;77.15;102792.06;5116398;28;20044;-70
2021/08/24 05:12:37;;;;;;;18.40;11.50;;;18.90;99.90;;;19.22;77.18;102784.03;5116813;28;20044;-70
2021/08/24 05:15:07;;;;;;;20.92;11.63;;;18.90;99.90;;;19.26;77.13;102788.47;5116448;28;20530;-70
2021/08/24 05:17:36;;;;;;;14.07;11.82;;;18.90;99.90;;;19.33;76.88;102795.59;5116901;28;20051;-70
2021/08/24 05:20:10;;;;;;;19.30;12.40;;;19.00;99.90;;;19.19;76.92;102765.25;5116071;28;20494;-70
2021/08/24 05:22:38;;;;;;;16.95;11.57;;;19.00;99.90;;;19.40;76.70;102782.09;5116060;28;20051;-70
2021/08/24 05:25:10;;;;;;;16.08;11.02;;;19.10;99.90;;;19.49;76.33;102786.47;5115998;28;20044;-70
2021/08/24 05:27:38;;;;;;;17.75;11.10;;;19.10;99.90;;;19.53;76.33;102782.88;5115985;28;20064;-70
2021/08/24 05:30:11;;;;;;;14.88;10.43;;;19.10;99.90;;;19.54;76.28;102779.25;5115862;28;20075;-70
2021/08/24 05:32:39;;;;;;;15.50;11.70;;;19.20;99.90;;;19.65;76.00;102786.28;5115846;28;20100;-70
2021/08/24 05:35:10;;;;;;;16.27;10.65;;;19.30;99.90;;;19.69;76.17;102787.13;5116361;28;20070;-70
2021/08/24 05:37:38;;;;;;;14.38;11.35;;;19.30;99.90;;;19.79;75.64;102778.06;5116139;28;20559;-70
2021/08/24 05:40:09;;;;;;;13.68;11.15;;;19.50;99.90;;;19.87;75.69;102795.00;5115716;28;20067;-70
2021/08/24 05:42:37;;;;;;;15.80;10.57;;;19.50;99.90;;;19.94;75.50;102791.31;5115869;28;20055;-70
2021/08/24 05:45:08;;;;;;;14.95;10.32;;;19.60;99.90;;;20.01;75.25;102794.81;5115841;28;20040;-70
2021/08/24 05:47:36;;;;;;;;;;;19.70;99.90;;;20.08;74.83;102799.19;5116111;28;20127;-70
2021/08/24 05:50:07;;;;;;;15.27;10.23;;;19.80;99.90;;;20.04;74.99;102776.84;5115575;28;20294;-70
2021/08/24 05:52:36;;;;;;;14.15;10.07;;;19.80;99.90;;;20.25;74.80;102800.78;5115809;28;20044;-70
2021/08/24 05:55:06;;;;;;;13.73;9.50;;;19.90;99.90;;;20.25;74.50;102790.03;5115701;28;20092;-71
2021/08/24 05:57:34;;;;;;;12.63;9.50;;;20.00;99.90;;;20.48;74.14;102793.28;5115354;28;20078;-70
2021/08/24 06:00:05;;;;;;;13.85;9.35;;;20.20;99.90;;;20.71;73.32;102810.91;5115615;28;20101;-71
2021/08/24 06:02:36;;;;;;;16.08;10.43;;;20.30;99.90;;;20.91;72.87;102814.16;5115578;28;20092;-70
2021/08/24 06:05:07;;;;;;;11.40;8.85;;;20.50;99.90;;;21.07;72.43;102816.63;5115277;28;20131;-71
2021/08/24 06:07:39;;;;;;;14.25;9.63;;;20.60;99.90;;;21.20;71.89;102826.25;5115614;28;20043;-71
2021/08/24 06:10:09;;;;;;;12.52;9.50;;;20.80;99.90;;;20.76;71.25;102717.56;5115145;28;20067;-70
2021/08/24 06:12:37;;;;;;;13.02;9.07;;;21.00;99.90;;;21.36;70.66;102794.56;5115217;28;20054;-70
2021/08/24 06:15:07;;;;;;;12.18;9.13;;;21.10;99.90;;;21.67;70.06;102821.81;5114610;28;20546;-70
2021/08/24 06:17:35;;;;;;;15.93;9.23;;;21.30;99.90;;;21.66;70.17;102804.75;5114980;28;20104;-70
2021/08/24 06:20:05;;;;;;;13.93;8.85;;;21.30;99.90;;;21.76;69.74;102821.63;5114788;28;20043;-71
2021/08/24 06:22:34;;;;;;;12.00;8.05;;;21.40;99.90;;;21.90;69.54;102828.56;5098267;28;20092;-71
2021/08/24 06:25:04;;;;;;;10.95;8.18;;;21.50;99.90;;;21.99;69.26;102822.13;5114772;28;20071;-71
2021/08/24 06:27:33;;;;;;;15.38;8.40;;;21.60;99.90;;;22.12;68.85;102831.72;5114834;28;20048;-72
2021/08/24 06:30:01;;;;;;;12.95;7.65;;;21.70;99.90;;;22.18;68.53;102821.69;5114761;28;20036;-71
2021/08/24 06:32:33;;;;;;;12.07;7.45;;;21.70;99.90;;;22.12;68.54;102837.13;5114630;28;20038;-72
2021/08/24 06:35:03;;;;;;;11.73;8.40;;;21.70;99.90;;;22.09;68.76;102823.69;5114661;28;20082;-72
2021/08/24 06:37:32;;;;;;;10.35;7.30;;;21.70;99.90;;;22.27;68.35;102836.78;5114879;28;20047;-72
2021/08/24 06:40:00;;;;;;;10.73;7.75;;;21.80;99.90;;;22.34;68.10;102831.22;5114461;28;20073;-71
2021/08/24 06:42:38;;;;;;;9.07;6.78;;;21.90;99.90;;;22.50;67.91;102836.28;5114353;28;20079;-70
2021/08/24 06:45:08;;;;;;;13.70;8.02;;;22.10;99.90;;;22.60;67.49;102832.50;5114453;28;20074;-73
2021/08/24 06:47:36;;;;;;;15.65;8.20;;;22.20;99.90;;;22.73;67.26;102836.69;5114415;28;20490;-82
2021/08/24 06:50:06;;;;;;;12.38;7.55;;;22.40;99.90;;;22.74;66.15;102836.66;5114697;28;20052;-75
2021/08/24 06:52:34;;;;;;;10.95;7.03;;;22.40;99.90;;;22.74;66.31;102839.38;5114325;28;20050;-74
2021/08/24 06:55:03;;;;;;;13.48;7.18;;;22.50;99.90;;;22.84;66.72;102845.44;5114392;28;20092;-85
2021/08/24 06:57:33;;;;;;;12.30;7.32;;;22.50;99.90;;;22.79;65.90;102834.72;5114471;28;20060;-86
2021/08/24 07:00:02;;;;;;;8.63;6.55;;;22.50;99.90;;;22.93;66.04;102845.22;5114203;28;20047;-74
2021/08/24 07:02:30;;;;;;;12.98;6.93;;;22.60;99.90;;;22.85;65.79;102828.28;5096112;28;20044;-73
2021/08/24 07:05:01;;;;;;;10.73;6.40;;;22.60;99.90;;;23.04;65.14;102843.13;5114062;28;20040;-74
2021/08/24 07:07:29;;;;;;;10.07;5.95;;;22.70;99.90;;;23.21;65.04;102846.28;5114562;28;20134;-72
2021/08/24 07:09:57;;;;;;;9.68;6.38;;;22.80;99.90;;;23.06;64.71;102850.28;5113898;28;20040;-73
2021/08/24 07:12:26;;;;;;;11.82;6.50;;;22.70;99.90;;;23.04;64.91;102826.91;5113891;28;20043;-73
2021/08/24 07:14:56;;;;;;;20.50;6.50;;;22.80;99.90;;;23.29;64.85;102838.88;5113901;28;20044;-71
2021/08/24 07:17:25;;;;;;;9.02;5.60;;;22.90;99.90;;;23.35;63.95;102846.88;5113859;28;20055;-72
2021/08/24 07:19:54;;;;;;;9.30;5.82;;;23.00;99.90;;;23.44;63.68;102834.94;5113760;28;20482;-71
2021/08/24 07:22:22;;;;;;;7.15;5.53;;;23.10;99.90;;;23.56;63.87;102857.09;5113963;28;20448;-72
2021/08/24 07:24:50;;;;;;;9.25;5.55;;;23.20;99.90;;;23.67;63.27;102849.63;5114239;28;20042;-73
2021/08/24 07:27:19;;;;;;;10.05;5.90;;;23.30;99.90;;;23.67;62.49;102846.91;5113466;28;20067;-71
2021/08/24 07:29:47;;;;;;;13.38;6.45;;;23.40;99.90;;;23.67;62.10;102857.72;5114417;28;20049;-72
2021/08/24 07:32:17;;;;;;;10.88;6.30;;;23.40;99.90;;;23.47;62.62;102835.75;5113513;28;20039;-71
2021/08/24 07:34:45;;;;;;;10.40;5.27;;;23.30;99.90;;;23.73;63.07;102857.53;5113580;28;20042;-74
2021/08/24 07:37:14;;;;;;;10.40;5.10;;;23.40;99.90;;;23.82;62.04;102857.31;5113796;28;20074;-70
2021/08/24 07:39:43;;;;;;;10.45;5.78;;;23.50;99.90;;;23.85;62.41;102861.72;5113853;28;20039;-71
2021/08/24 07:42:12;;;;;;;9.30;5.82;;;23.50;99.90;;;23.97;61.99;102856.88;5113792;28;20083;-73
2021/08/24 07:44:41;;;;;;;10.38;4.53;;;23.60;99.90;;;24.15;61.62;102871.72;5113768;28;20094;-71
2021/08/24 07:47:10;;;;;;;11.88;5.28;;;23.70;99.90;;;24.27;61.04;102865.06;5113457;28;20096;-71
2021/08/24 07:49:42;;;;;;;9.07;4.95;;;23.90;99.90;;;24.30;60.97;102843.31;5114041;28;20046;-72
2021/08/24 07:52:12;;;;;;;8.90;5.10;;;24.10;99.90;;;24.52;59.88;102866.13;5095553;28;20146;-71
2021/08/24 07:54:41;;;;;;;7.03;4.90;;;24.20;99.90;;;24.51;59.19;102867.94;5113372;28;20074;-71
2021/08/24 07:57:09;;;;;;;7.57;5.18;;;24.20;99.90;;;24.64;59.25;102872.03;5113314;28;20110;-71
2021/08/24 07:59:38;;;;;;;10.23;5.28;;;24.30;99.90;;;24.77;59.04;102868.06;5113767;28;20439;-71
2021/08/24 08:02:06;;;;;;;6.18;4.85;;;24.40;99.90;;;24.64;58.87;102844.09;5113519;28;20092;-71
2021/08/24 08:04:35;;;;;;;8.10;4.82;;;24.50;99.90;;;24.98;58.90;102863.75;5113151;28;20055;-71
2021/08/24 08:07:05;;;;;;;8.25;4.10;;;24.60;99.90;;;25.16;58.13;102871.31;5113227;28;20052;-71
2021/08/24 08:09:34;;;;;;;11.40;5.30;;;24.80;99.90;;;25.03;57.07;102869.91;5113761;28;20047;-71
2021/08/24 08:12:02;;;;;;;10.82;5.50;;;24.80;99.90;;;25.07;57.08;102871.59;5095231;28;20455;-71
2021/08/24 08:14:31;;;;;;;10.07;4.90;;;24.80;99.90;;;25.02;57.20;102879.00;5112973;28;20054;-71
2021/08/24 08:16:59;;;;;;;9.50;5.10;;;24.80;99.90;;;24.57;56.89;102874.97;5113255;28;20160;-71
2021/08/24 08:19:28;;;;;;;8.13;4.68;;;24.40;99.90;;;24.90;58.54;102888.41;5094996;28;20032;-71
2021/08/24 08:21:56;;;;;;;7.43;4.70;;;24.60;99.90;;;25.21;58.07;102876.56;5095160;28;20139;-71
2021/08/24 08:24:27;;;;;;;9.98;4.45;;;24.80;99.90;;;25.27;57.29;102884.47;5113382;28;20040;-71
2021/08/24 08:27:00;;;;;;;8.35;5.20;;;24.90;99.90;;;25.32;57.14;102872.53;5113383;28;20054;-71
2021/08/24 08:29:28;;;;;;;7.50;4.55;;;25.00;99.90;;;25.34;57.23;102870.66;5113019;28;20067;-70
2021/08/24 08:32:03;;;;;;;6.20;4.35;;;25.10;99.90;;;25.43;57.20;102878.53;5112921;28;20555;-71
2021/08/24 08:34:32;;;;;;;6.15;4.25;;;25.10;99.90;;;25.45;57.27;102864.94;5113308;28;20104;-71
2021/08/24 08:37:00;;;;;;;10.52;4.53;;;25.20;99.90;;;25.75;57.09;102874.69;5112790;28;20097;-71
2021/08/24 08:39:30;;;;;;;6.07;4.03;;;25.40;99.90;;;25.99;56.33;102878.34;5115210;28;20047;-71
2021/08/24 08:42:25;;;;;;;7.20;4.23;;;25.60;99.90;;;26.01;54.64;102876.47;5117073;28;20080;-71
2021/08/24 08:45:00;;;;;;;6.10;4.07;;;25.70;99.90;;;26.11;55.64;102869.81;5116757;28;20333;-70
2021/08/24 08:47:46;;;;;;;6.47;4.28;;;25.80;99.90;;;26.25;54.08;102857.47;5116844;28;20521;-71
2021/08/24 08:50:29;;;;;;;7.97;5.30;;;26.00;99.90;;;26.42;54.71;102870.41;5116627;28;20043;-71
2021/08/24 08:53:07;;;;;;;7.10;4.82;;;26.10;99.90;;;26.13;54.17;102819.06;5116964;28;20054;-71
2021/08/24 08:55:45;;;;;;;10.65;4.95;;;26.20;99.90;;;26.38;54.63;102874.19;5116926;28;20067;-71
2021/08/24 08:58:31;;;;;;;6.90;4.25;;;26.10;99.90;;;25.97;54.33;102794.31;5116604;28;20475;-71
2021/08/24 09:01:06;;;;;;;8.68;4.70;;;26.10;99.90;;;26.38;53.90;102847.94;5116380;28;20039;-70
2021/08/24 09:03:50;;;;;;;8.02;4.55;;;26.20;99.90;;;26.39;53.71;102871.41;5098320;28;20054;-71
2021/08/24 09:06:21;;;;;;;10.18;4.68;;;26.10;99.90;;;26.46;53.69;102863.94;5116403;28;20104;-71
2021/08/24 09:08:50;;;;;;;5.78;4.30;;;26.20;99.90;;;26.55;52.21;102882.56;5116540;28;20398;-71
2021/08/24 09:11:26;;;;;;;9.40;4.43;;;26.30;99.90;;;26.50;52.37;102880.03;5116134;28;20043;-71
2021/08/24 09:14:05;;;;;;;7.40;4.57;;;26.20;99.90;;;26.55;52.30;102886.19;5116318;28;20051;-71
2021/08/24 09:16:37;;;;;;;9.43;4.68;;;26.30;99.90;;;26.69;52.02;102891.06;5116193;28;20466;-71
2021/08/24 09:19:13;;;;;;;7.82;4.53;;;26.40;99.90;;;26.69;51.47;102889.22;5116195;28;20048;-71
2021/08/24 09:21:44;;;;;;;8.07;4.20;;;26.40;99.90;;;26.75;52.41;102852.84;5116323;28;20040;-71
2021/08/24 09:24:18;;;;;;;7.68;3.78;;;26.50;99.90;;;27.22;51.25;102895.25;5116035;28;20040;-71
2021/08/24 09:26:56;;;;;;;7.60;4.53;;;26.80;99.90;;;26.83;50.72;102869.69;5116018;28;20073;-71
2021/08/24 09:29:28;;;;;;;8.48;4.05;;;26.70;99.90;;;26.87;50.77;102892.22;5115923;28;20540;-71
2021/08/24 09:31:57;;;;;;;20.90;4.82;;;26.60;99.90;;;26.92;50.87;102854.88;5115801;28;20452;-71
2021/08/24 09:34:29;;;;;;;6.55;4.05;;;26.70;99.90;;;26.93;49.98;102849.34;5116118;28;20054;-71
2021/08/24 09:36:57;;;;;;;5.78;3.60;;;26.80;99.90;;;27.31;50.20;102881.25;5115593;28;20101;-71
2021/08/24 09:39:58;;;;;;;7.18;4.90;;;27.00;99.90;;;27.02;49.16;102900.63;5097409;28;20082;-71
2021/08/24 09:42:32;;;;;;;;;;;26.80;99.90;;;27.05;50.54;102889.63;5097174;28;20458;-71
2021/08/24 09:45:24;;;;;;;7.10;4.78;;;26.80;99.90;;;27.32;50.23;102893.03;5114968;28;19962;-71
2021/08/24 09:48:06;;;;;;;6.15;3.97;;;26.90;99.90;;;27.20;48.17;102882.66;5115630;28;20036;-71
2021/08/24 09:50:39;;;;;;;6.95;3.70;;;26.90;99.90;;;27.01;48.83;102871.66;5114112;28;20044;-71
2021/08/24 09:53:24;;;;;;;7.93;4.13;;;26.80;99.90;;;27.30;48.98;102879.50;5115013;28;20124;-71
2021/08/24 09:55:53;;;;;;;6.80;4.22;;;27.00;99.90;;;27.36;47.96;102871.13;5115301;28;20047;-71
2021/08/24 09:58:34;;;;;;;5.25;4.10;;;27.10;99.90;;;27.25;48.89;102892.41;5114730;28;20035;-71
2021/08/24 10:01:06;;;;;;;8.73;3.78;;;26.90;99.90;;;27.20;48.99;102880.84;5114888;28;20048;-71
2021/08/24 10:03:38;;;;;;;7.22;4.20;;;26.90;99.90;;;26.96;49.09;102871.00;5114634;28;20035;-71
2021/08/24 10:06:24;;;;;;;7.28;4.00;;;26.80;99.90;;;27.01;49.53;102873.50;5096298;28;20405;-71
2021/08/24 10:08:55;;;;;;;7.40;3.97;;;26.70;99.90;;;26.97;49.26;102882.72;5114627;28;20048;-71
2021/08/24 10:11:31;;;;;;;6.65;4.18;;;26.70;99.90;;;27.03;49.67;102874.31;5114631;28;20077;-71
2021/08/24 10:14:20;;;;;;;8.55;4.13;;;26.70;99.90;;;27.23;49.57;102879.84;5114434;28;20115;-71
2021/08/24 10:16:54;;;;;;;6.28;4.00;;;26.90;99.90;;;27.45;47.81;102873.44;5096382;28;20472;-71
2021/08/24 10:19:27;;;;;;;6.88;3.70;;;27.10;99.90;;;27.44;48.09;102871.69;5114723;28;20047;-71
2021/08/24 10:22:00;;;;;;;5.20;3.70;;;27.20;99.90;;;27.51;48.17;102872.28;5114475;28;20146;-71
2021/08/24 10:24:33;;;;;;;5.78;3.65;;;27.20;99.90;;;27.58;47.26;102869.25;5114906;28;20039;-71
2021/08/24 10:27:08;;;;;;;6.00;4.30;;;27.30;99.90;;;27.18;46.72;102838.34;5114621;28;20428;-71
2021/08/24 10:29:41;;;;;;;6.30;3.65;;;27.10;99.90;;;27.35;48.07;102868.47;5114326;28;20096;-71
2021/08/24 10:32:12;;;;;;;6.60;3.63;;;27.10;99.90;;;26.69;47.83;102775.16;5114423;28;20050;-71